Time;durP1;ratioP1;P1;durP2;ratioP2;P2;SDS_P1;SDS_P2;PMS_P1;PMS_P2;Temp;Humidity;BMP_temperature;BMP_pressure;BME280_temperature;BME280_humidity;BME280_pressure;Samples;Min_cycle;Max_cycle;Signal;HPM_P1;HPM_P2
2021/08/07 00:00:49;;;;;;;17.42;9.80;;;20.30;99.90;;;;;;5032978;28;20116;-70
2021/08/07 00:03:15;;;;;;;15.00;9.48;;;20.40;99.90;;;;;;5034647;28;20460;-70
2021/08/07 00:05:41;;;;;;;14.55;9.80;;;20.40;99.90;;;;;;5034709;28;20341;-70
2021/08/07 00:08:07;;;;;;;18.88;10.13;;;20.50;99.90;;;;;;5034320;28;20046;-69
2021/08/07 00:10:33;;;;;;;16.95;10.20;;;20.50;99.90;;;;;;5034334;28;20028;-70
2021/08/07 00:13:00;;;;;;;14.75;10.23;;;20.50;99.90;;;;;;5034099;28;20104;-70
2021/08/07 00:15:26;;;;;;;20.08;11.00;;;20.50;99.90;;;;;;5032915;28;20119;-70
2021/08/07 00:17:52;;;;;;;17.23;11.30;;;20.50;99.90;;;;;;5034200;28;20021;-70
2021/08/07 00:20:18;;;;;;;17.52;10.40;;;20.50;99.90;;;;;;5032896;28;20480;-70
2021/08/07 00:22:43;;;;;;;20.52;11.07;;;20.50;99.90;;;;;;5033863;28;20025;-70
2021/08/07 00:25:10;;;;;;;21.95;11.35;;;20.40;99.90;;;;;;5032776;28;20123;-70
2021/08/07 00:27:36;;;;;;;21.40;11.82;;;20.50;99.90;;;;;;5034211;28;20041;-70
2021/08/07 00:30:06;;;;;;;20.48;12.20;;;20.50;99.90;;;;;;5033972;28;20018;-70
2021/08/07 00:32:31;;;;;;;16.52;10.98;;;20.50;99.90;;;;;;5034200;28;20029;-70
2021/08/07 00:34:57;;;;;;;19.73;12.90;;;20.50;99.90;;;;;;5033751;28;20076;-70
2021/08/07 00:37:24;;;;;;;16.25;11.27;;;20.50;99.90;;;;;;5033863;28;20025;-70
2021/08/07 00:39:49;;;;;;;17.17;10.93;;;20.60;99.90;;;;;;5032644;28;20071;-71
2021/08/07 00:42:15;;;;;;;18.77;11.02;;;20.50;99.90;;;;;;5033620;28;20033;-70
2021/08/07 00:44:41;;;;;;;16.40;10.15;;;20.60;99.90;;;;;;5033520;28;20040;-70
2021/08/07 00:47:06;;;;;;;16.98;10.90;;;20.60;99.90;;;;;;5033911;28;20029;-70
2021/08/07 00:49:32;;;;;;;19.65;11.18;;;20.60;99.90;;;;;;5031604;28;20029;-70
2021/08/07 00:51:58;;;;;;;20.08;11.48;;;20.60;99.90;;;;;;5032743;28;20028;-70
2021/08/07 00:54:23;;;;;;;23.52;13.32;;;20.50;99.90;;;;;;5032322;28;20395;-70
2021/08/07 00:56:49;;;;;;;17.02;11.43;;;20.50;99.90;;;;;;5033644;28;20032;-70
2021/08/07 00:59:15;;;;;;;17.13;11.23;;;20.50;99.90;;;;;;5033597;28;20031;-70
2021/08/07 01:01:48;;;;;;;18.38;12.07;;;20.60;99.90;;;;;;5033534;28;20022;-70
2021/08/07 01:04:19;;;;;;;14.35;10.05;;;20.60;99.90;;;;;;5034163;28;20116;-70
2021/08/07 01:06:57;;;;;;;15.05;9.30;;;20.50;99.90;;;;;;5033391;28;20041;-70
2021/08/07 01:09:44;;;;;;;14.32;9.50;;;20.50;99.90;;;;;;5033637;28;20513;-70
2021/08/07 01:12:13;;;;;;;12.27;9.07;;;20.50;99.90;;;;;;5032616;28;20029;-70
2021/08/07 01:14:43;;;;;;;16.60;9.60;;;20.50;99.90;;;;;;5032630;28;20075;-70
2021/08/07 01:17:13;;;;;;;16.85;9.60;;;20.50;99.90;;;;;;5033438;28;20025;-70
2021/08/07 01:19:55;;;;;;;14.88;9.07;;;20.50;99.90;;;;;;5033370;28;20030;-70
2021/08/07 01:22:27;;;;;;;17.42;9.25;;;20.50;99.90;;;;;;5033467;28;20025;-70
2021/08/07 01:25:01;;;;;;;12.60;8.52;;;20.40;99.90;;;;;;5033519;28;20029;-70
2021/08/07 01:27:30;;;;;;;16.65;10.13;;;20.40;99.90;;;;;;5032553;28;20021;-70
2021/08/07 01:29:57;;;;;;;16.40;9.88;;;20.40;99.90;;;;;;5033559;28;20448;-70
2021/08/07 01:32:29;;;;;;;13.85;9.73;;;20.40;99.90;;;;;;5033177;28;20061;-70
2021/08/07 01:34:55;;;;;;;20.70;10.98;;;20.40;99.90;;;;;;5033644;28;20468;-70
2021/08/07 01:37:23;;;;;;;20.00;12.20;;;20.30;99.90;;;;;;5033453;28;20017;-70
2021/08/07 01:39:51;;;;;;;16.83;11.88;;;20.40;99.90;;;;;;5032135;28;20029;-70
2021/08/07 01:42:17;;;;;;;15.80;10.38;;;20.40;99.90;;;;;;5032025;28;20084;-70
2021/08/07 01:44:43;;;;;;;14.73;10.10;;;20.30;99.90;;;;;;5031817;28;20459;-70
2021/08/07 01:47:27;;;;;;;18.15;9.32;;;20.30;99.90;;;;;;5033195;28;20025;-70
2021/08/07 01:50:03;;;;;;;13.90;9.48;;;20.30;99.90;;;;;;5033088;28;20024;-70
2021/08/07 01:52:34;;;;;;;13.77;8.65;;;20.30;99.90;;;;;;5033584;28;20037;-70
2021/08/07 01:55:03;;;;;;;13.65;8.80;;;20.40;99.90;;;;;;5031779;28;20075;-70
2021/08/07 01:57:32;;;;;;;15.15;9.27;;;20.40;99.90;;;;;;5033101;28;20053;-70
2021/08/07 01:59:58;;;;;;;12.65;9.07;;;20.40;99.90;;;;;;5033799;28;20083;-70
2021/08/07 02:02:26;;;;;;;18.65;10.60;;;20.40;99.90;;;;;;5036567;28;20083;-71
2021/08/07 02:04:51;;;;;;;15.82;10.23;;;20.40;99.90;;;;;;5035450;28;20034;-70
2021/08/07 02:07:18;;;;;;;17.67;10.57;;;20.40;99.90;;;;;;5036566;28;20463;-70
2021/08/07 02:09:44;;;;;;;19.73;10.90;;;20.30;99.90;;;;;;5036555;28;20017;-71
2021/08/07 02:12:11;;;;;;;18.73;10.90;;;20.30;99.90;;;;;;5036308;28;20028;-70
2021/08/07 02:14:40;;;;;;;17.95;11.73;;;20.30;99.90;;;;;;5036613;28;20026;-70
2021/08/07 02:17:06;;;;;;;20.40;11.10;;;20.30;99.90;;;;;;5036257;28;20463;-70
2021/08/07 02:19:32;;;;;;;14.10;10.13;;;20.30;99.90;;;;;;5036596;28;20103;-70
2021/08/07 02:21:59;;;;;;;16.75;10.20;;;20.30;99.90;;;;;;5036216;28;20447;-70
2021/08/07 02:24:26;;;;;;;13.35;9.35;;;20.30;99.90;;;;;;5034843;28;20033;-70
2021/08/07 02:26:53;;;;;;;15.45;9.45;;;20.30;99.90;;;;;;5036329;28;20025;-70
2021/08/07 02:29:20;;;;;;;14.10;9.75;;;20.30;99.90;;;;;;5036839;28;20025;-70
2021/08/07 02:31:47;;;;;;;12.00;9.00;;;20.30;99.90;;;;;;5034969;28;20044;-70
2021/08/07 02:34:13;;;;;;;16.50;9.20;;;20.30;99.90;;;;;;5034977;28;20092;-70
2021/08/07 02:36:41;;;;;;;14.43;9.93;;;20.40;99.90;;;;;;5034678;28;20116;-69
2021/08/07 02:39:07;;;;;;;16.73;9.75;;;20.40;99.90;;;;;;5035798;28;20101;-69
2021/08/07 02:41:33;;;;;;;14.77;9.50;;;20.40;99.90;;;;;;5036480;28;20033;-69
2021/08/07 02:44:00;;;;;;;14.50;9.38;;;20.40;99.90;;;;;;5036092;28;20029;-69
2021/08/07 02:46:26;;;;;;;15.80;9.43;;;20.40;99.90;;;;;;5034668;28;20022;-69
2021/08/07 02:48:53;;;;;;;13.52;9.30;;;20.40;99.90;;;;;;5036002;28;20100;-69
2021/08/07 02:51:21;;;;;;;18.92;9.27;;;20.40;99.90;;;;;;5034685;28;20025;-77
2021/08/07 02:53:49;;;;;;;16.48;9.48;;;20.40;99.90;;;;;;5035796;28;20464;-76
2021/08/07 02:56:14;;;;;;;12.23;8.60;;;20.40;99.90;;;;;;5034556;28;20021;-77
2021/08/07 02:58:41;;;;;;;14.20;9.32;;;20.40;99.90;;;;;;5035714;28;20017;-76
2021/08/07 03:01:07;;;;;;;16.55;9.20;;;20.40;99.90;;;;;;5035775;28;20029;-72
2021/08/07 03:03:33;;;;;;;14.75;9.43;;;20.40;99.90;;;;;;5034262;28;20194;-75
2021/08/07 03:05:58;;;;;;;14.75;9.65;;;20.40;99.90;;;;;;5035295;28;20132;-67
2021/08/07 03:08:24;;;;;;;13.02;8.68;;;20.40;99.90;;;;;;5035898;28;20052;-75
2021/08/07 03:10:50;;;;;;;12.77;8.48;;;20.30;99.90;;;;;;5035189;28;20024;-75
2021/08/07 03:13:16;;;;;;;14.52;8.70;;;20.30;99.90;;;;;;5032875;28;20079;-75
2021/08/07 03:15:42;;;;;;;14.73;8.77;;;20.30;99.90;;;;;;5033767;28;20026;-71
2021/08/07 03:18:08;;;;;;;12.82;8.70;;;20.40;99.90;;;;;;5030562;28;20459;-70
2021/08/07 03:20:34;;;;;;;13.43;8.80;;;20.40;99.90;;;;;;5058919;28;20026;-71
2021/08/07 03:23:03;;;;;;;13.27;8.70;;;20.40;99.90;;;;;;5026863;28;20030;-71
2021/08/07 03:25:28;;;;;;;14.27;8.85;;;20.40;99.90;;;;;;5030536;28;20025;-71
2021/08/07 03:27:54;;;;;;;13.73;8.98;;;20.40;99.90;;;;;;5013432;28;20018;-71
2021/08/07 03:30:20;;;;;;;12.63;8.30;;;20.40;99.90;;;;;;5045608;28;20072;-71
2021/08/07 03:32:46;;;;;;;12.52;8.63;;;20.60;99.90;;;;;;5016265;28;20044;-71
2021/08/07 03:35:12;;;;;;;13.23;8.88;;;20.60;99.90;;;;;;5032680;28;20021;-71
2021/08/07 03:37:38;;;;;;;15.40;9.38;;;20.60;99.90;;;;;;5034396;28;20014;-72
2021/08/07 03:40:04;;;;;;;14.90;8.77;;;20.60;99.90;;;;;;5035110;28;20021;-71
2021/08/07 03:42:30;;;;;;;13.02;8.57;;;20.70;99.90;;;;;;5034621;28;20033;-71
2021/08/07 03:44:55;;;;;;;15.82;9.48;;;20.80;99.90;;;;;;5033199;28;20478;-71
2021/08/07 03:47:22;;;;;;;12.70;8.35;;;20.90;99.90;;;;;;5032840;28;20025;-71
2021/08/07 03:49:48;;;;;;;16.73;9.13;;;20.90;99.90;;;;;;5033455;28;20028;-71
2021/08/07 03:52:14;;;;;;;11.93;8.18;;;21.00;99.90;;;;;;5033547;28;20025;-71
2021/08/07 03:54:39;;;;;;;15.40;7.97;;;21.20;99.90;;;;;;5034701;28;20101;-71
2021/08/07 03:57:05;;;;;;;14.45;7.95;;;21.30;99.90;;;;;;5066538;28;20033;-71
2021/08/07 03:59:31;;;;;;;11.77;7.57;;;21.30;99.90;;;;;;5033539;28;20036;-70
2021/08/07 04:01:56;;;;;;;11.43;7.70;;;21.50;99.90;;;;;;5032644;28;20057;-71
2021/08/07 04:04:22;;;;;;;12.65;7.95;;;21.50;99.90;;;;;;5066780;28;20372;-71
2021/08/07 04:06:48;;;;;;;14.40;7.40;;;21.50;99.90;;;;;;5032736;28;20148;-72
2021/08/07 04:09:13;;;;;;;12.77;8.35;;;21.50;99.90;;;;;;5066760;28;20022;-71
2021/08/07 04:11:39;;;;;;;12.57;8.20;;;21.50;99.90;;;;;;5065850;28;20116;-72
2021/08/07 04:14:05;;;;;;;12.82;7.95;;;21.50;99.90;;;;;;5034011;28;20025;-71
2021/08/07 04:16:32;;;;;;;12.10;7.88;;;21.60;99.90;;;;;;5033254;28;20021;-71
2021/08/07 04:18:58;;;;;;;13.35;7.93;;;21.80;99.90;;;;;;5026827;28;20463;-71
2021/08/07 04:21:23;;;;;;;13.98;7.65;;;21.90;99.90;;;;;;5030607;28;20070;-70
2021/08/07 04:23:49;;;;;;;11.38;7.30;;;22.10;99.90;;;;;;5033699;28;20509;-71
2021/08/07 04:26:15;;;;;;;15.85;7.43;;;22.40;99.90;;;;;;5032467;28;20036;-71
2021/08/07 04:28:40;;;;;;;15.15;7.45;;;22.70;99.90;;;;;;5033881;28;20514;-71
2021/08/07 04:31:06;;;;;;;10.18;6.82;;;22.90;98.60;;;;;;5060688;28;20035;-71
2021/08/07 04:33:34;;;;;;;12.15;6.95;;;23.10;97.90;;;;;;5065535;28;20021;-71
2021/08/07 04:36:04;;;;;;;10.35;6.45;;;23.30;97.10;;;;;;5033310;28;20031;-71
2021/08/07 04:38:31;;;;;;;12.18;6.85;;;23.60;96.60;;;;;;5065627;28;20021;-71
2021/08/07 04:40:57;;;;;;;14.73;7.05;;;23.90;95.80;;;;;;5065530;28;20026;-71
2021/08/07 04:43:22;;;;;;;11.73;6.63;;;24.10;95.00;;;;;;5032453;28;20040;-72
2021/08/07 04:45:48;;;;;;;10.63;7.15;;;24.30;93.90;;;;;;5031585;28;20025;-71
2021/08/07 04:48:14;;;;;;;11.27;6.47;;;24.50;93.10;;;;;;5065532;28;20026;-72
2021/08/07 04:50:40;;;;;;;11.75;6.80;;;24.70;92.40;;;;;;5032407;28;20029;-72
2021/08/07 04:53:06;;;;;;;10.10;6.78;;;24.90;91.70;;;;;;5032433;28;20379;-72
2021/08/07 04:55:34;;;;;;;8.43;6.45;;;25.10;91.00;;;;;;5033184;28;20025;-72
2021/08/07 04:57:59;;;;;;;11.43;6.97;;;25.30;90.10;;;;;;5033198;28;20037;-72
2021/08/07 05:00:25;;;;;;;11.05;7.03;;;25.50;89.90;;;;;;5031311;28;20028;-72
2021/08/07 05:02:51;;;;;;;13.57;7.10;;;25.70;88.10;;;;;;5031922;28;20041;-72
2021/08/07 05:05:17;;;;;;;11.20;7.13;;;25.70;86.60;;;;;;5032949;28;20057;-72
2021/08/07 05:07:44;;;;;;;11.90;6.95;;;25.70;85.40;;;;;;5059306;28;20053;-72
2021/08/07 05:10:11;;;;;;;10.15;7.70;;;25.60;84.70;;;;;;5042673;28;20104;-72
2021/08/07 05:12:37;;;;;;;11.40;8.48;;;25.40;84.00;;;;;;5033828;28;20362;-72
2021/08/07 05:15:04;;;;;;;12.55;9.43;;;25.10;84.20;;;;;;5031819;28;20025;-73
2021/08/07 05:17:29;;;;;;;16.70;11.43;;;24.90;84.90;;;;;;5031163;28;20033;-72
2021/08/07 05:19:55;;;;;;;16.98;12.07;;;24.60;85.10;;;;;;5032209;28;20455;-72
2021/08/07 05:22:22;;;;;;;20.67;12.63;;;24.40;85.40;;;;;;5032222;28;20083;-72
2021/08/07 05:24:48;;;;;;;22.55;14.52;;;24.20;85.90;;;;;;5032039;28;20024;-72
2021/08/07 05:27:14;;;;;;;21.73;14.65;;;24.10;86.70;;;;;;5065156;28;20017;-72
2021/08/07 05:29:41;;;;;;;23.20;15.85;;;24.00;87.30;;;;;;5028699;28;20443;-71
2021/08/07 05:32:07;;;;;;;22.00;15.52;;;24.00;87.60;;;;;;5044731;28;20025;-71
2021/08/07 05:34:32;;;;;;;22.77;15.73;;;24.00;88.00;;;;;;5034813;28;20455;-75
2021/08/07 05:36:58;;;;;;;27.48;18.58;;;23.90;87.80;;;;;;5052352;28;20095;-73
2021/08/07 05:39:24;;;;;;;30.20;18.77;;;23.80;87.90;;;;;;5037042;28;20105;-76
2021/08/07 05:41:50;;;;;;;29.08;17.85;;;23.60;87.90;;;;;;5024069;28;20448;-72
2021/08/07 05:44:15;;;;;;;29.90;19.55;;;23.50;88.40;;;;;;5034583;28;20022;-72
2021/08/07 05:46:41;;;;;;;31.83;19.73;;;23.30;88.90;;;;;;5035567;28;20503;-71
2021/08/07 05:49:07;;;;;;;36.92;21.45;;;23.20;89.50;;;;;;5036470;28;20029;-72
2021/08/07 05:51:35;;;;;;;34.60;21.25;;;23.10;90.00;;;;;;5015790;28;20025;-72
2021/08/07 05:54:04;;;;;;;32.75;20.77;;;23.00;90.20;;;;;;5015681;28;20072;-72
2021/08/07 05:56:30;;;;;;;37.17;22.20;;;22.90;90.40;;;;;;5016864;28;20101;-72
2021/08/07 05:58:56;;;;;;;37.83;21.67;;;22.80;90.40;;;;;;5015391;28;20061;-72
2021/08/07 06:01:22;;;;;;;37.40;22.35;;;22.60;90.60;;;;;;5026586;28;20029;-72
2021/08/07 06:03:48;;;;;;;41.15;23.50;;;22.60;90.80;;;;;;5068126;28;20040;-73
2021/08/07 06:06:13;;;;;;;41.38;24.20;;;22.40;91.00;;;;;;5020846;28;20026;-72
2021/08/07 06:08:39;;;;;;;42.45;22.55;;;22.40;91.40;;;;;;5016653;28;20033;-72
2021/08/07 06:11:05;;;;;;;40.80;23.85;;;22.40;91.90;;;;;;5028411;28;20024;-72
2021/08/07 06:13:31;;;;;;;43.22;24.00;;;22.40;92.10;;;;;;5018808;28;20116;-71
2021/08/07 06:15:57;;;;;;;44.20;24.23;;;22.40;92.20;;;;;;5015299;28;20460;-71
2021/08/07 06:18:22;;;;;;;45.50;24.60;;;22.30;92.50;;;;;;5015492;28;20041;-71
2021/08/07 06:20:49;;;;;;;43.05;24.40;;;22.40;93.00;;;;;;5030760;28;20030;-72
2021/08/07 06:23:15;;;;;;;44.15;24.10;;;22.40;93.00;;;;;;5035887;28;20034;-72
2021/08/07 06:25:41;;;;;;;41.42;25.70;;;22.50;93.00;;;;;;5034245;28;20025;-72
2021/08/07 06:28:07;;;;;;;39.45;23.00;;;22.60;93.50;;;;;;5034024;28;20025;-73
2021/08/07 06:30:33;;;;;;;37.97;21.83;;;23.00;94.60;;;;;;5033119;28;20033;-75
2021/08/07 06:33:00;;;;;;;35.28;20.20;;;23.60;94.40;;;;;;5042301;28;20546;-76
2021/08/07 06:35:25;;;;;;;34.03;20.17;;;24.30;93.40;;;;;;5053547;28;20021;-77
2021/08/07 06:37:53;;;;;;;30.02;19.73;;;25.00;91.70;;;;;;5036392;28;20413;-73
2021/08/07 06:40:19;;;;;;;28.92;18.70;;;25.60;89.60;;;;;;5036038;28;20025;-72
2021/08/07 06:42:45;;;;;;;29.40;18.73;;;26.20;86.90;;;;;;5040500;28;20104;-72
2021/08/07 06:45:11;;;;;;;26.75;18.33;;;26.90;84.70;;;;;;5033274;28;21087;-72
2021/08/07 06:47:37;;;;;;;26.38;17.67;;;27.40;81.90;;;;;;5033501;28;20021;-71
2021/08/07 06:50:04;;;;;;;24.67;16.13;;;27.80;78.80;;;;;;5034996;28;20047;-72
2021/08/07 06:52:30;;;;;;;23.58;16.27;;;28.20;77.40;;;;;;5038130;28;20017;-73
2021/08/07 06:54:56;;;;;;;20.70;15.18;;;28.40;75.70;;;;;;5054258;28;20167;-73
2021/08/07 06:57:22;;;;;;;17.60;12.95;;;28.60;74.60;;;;;;5034311;28;20072;-72
2021/08/07 06:59:48;;;;;;;18.33;13.77;;;28.90;74.00;;;;;;5035371;28;20032;-70
2021/08/07 07:02:13;;;;;;;16.48;12.57;;;29.40;72.80;;;;;;5030850;28;20510;-70
2021/08/07 07:04:39;;;;;;;16.52;13.13;;;29.70;71.50;;;;;;5028935;28;20448;-71
2021/08/07 07:07:05;;;;;;;16.90;12.23;;;30.00;70.20;;;;;;5033034;28;20428;-71
2021/08/07 07:09:32;;;;;;;14.57;11.75;;;30.00;69.20;;;;;;5032413;28;20116;-71
2021/08/07 07:11:57;;;;;;;15.57;11.52;;;30.30;68.60;;;;;;5021941;28;20033;-71
2021/08/07 07:14:23;;;;;;;15.15;11.73;;;30.50;67.80;;;;;;5066509;28;20067;-71
2021/08/07 07:16:49;;;;;;;16.40;11.75;;;30.50;67.20;;;;;;5042291;28;20103;-71
2021/08/07 07:19:15;;;;;;;14.88;10.98;;;30.60;67.40;;;;;;5054109;28;20024;-71
2021/08/07 07:21:41;;;;;;;14.30;10.55;;;30.60;66.60;;;;;;5043973;28;20021;-71
2021/08/07 07:24:08;;;;;;;16.20;10.65;;;30.60;66.20;;;;;;5037246;28;20029;-71
2021/08/07 07:26:34;;;;;;;12.75;10.40;;;30.60;66.10;;;;;;5032495;28;20017;-71
2021/08/07 07:29:00;;;;;;;11.70;9.75;;;30.40;65.20;;;;;;5032446;28;20025;-72
2021/08/07 07:31:26;;;;;;;12.68;8.82;;;30.10;65.50;;;;;;5033233;28;20040;-72
2021/08/07 07:33:53;;;;;;;8.98;7.50;;;29.80;65.40;;;;;;5027816;28;20033;-72
2021/08/07 07:36:19;;;;;;;11.68;8.07;;;29.50;65.30;;;;;;5032042;28;20040;-72
2021/08/07 07:38:45;;;;;;;9.43;8.00;;;29.10;65.50;;;;;;5031992;28;20022;-72
2021/08/07 07:41:12;;;;;;;8.35;6.80;;;28.70;66.10;;;;;;5065358;28;20033;-72
2021/08/07 07:43:38;;;;;;;10.00;6.57;;;28.40;66.50;;;;;;5032130;28;20028;-72
2021/08/07 07:46:05;;;;;;;10.57;6.32;;;28.00;66.60;;;;;;5037824;28;20051;-71
2021/08/07 07:48:31;;;;;;;8.38;5.80;;;27.80;67.30;;;;;;5031959;28;20460;-71
2021/08/07 07:50:57;;;;;;;7.97;5.70;;;27.70;67.90;;;;;;5033504;28;20031;-71
2021/08/07 07:53:22;;;;;;;9.32;5.68;;;27.90;67.90;;;;;;5032045;28;20029;-71
2021/08/07 07:55:48;;;;;;;10.57;5.65;;;28.20;67.50;;;;;;5036681;28;20057;-71
2021/08/07 07:58:14;;;;;;;9.13;6.25;;;28.50;67.40;;;;;;5031169;28;20075;-72
2021/08/07 08:00:40;;;;;;;9.32;5.97;;;28.80;66.20;;;;;;5030790;28;20020;-71
2021/08/07 08:03:06;;;;;;;9.32;5.68;;;29.00;65.70;;;;;;5022410;28;20057;-72
2021/08/07 08:05:31;;;;;;;11.52;5.60;;;29.20;65.30;;;;;;5043321;28;20029;-72
2021/08/07 08:07:57;;;;;;;6.30;5.10;;;29.30;64.50;;;;;;5040652;28;20037;-72
2021/08/07 08:10:23;;;;;;;7.68;5.00;;;29.30;64.20;;;;;;5064382;28;20034;-72
2021/08/07 08:12:49;;;;;;;7.20;4.88;;;29.40;63.60;;;;;;5030543;28;20031;-72
2021/08/07 08:15:14;;;;;;;8.02;4.80;;;29.50;63.40;;;;;;5063537;28;20021;-72
2021/08/07 08:17:41;;;;;;;10.15;4.90;;;29.70;63.50;;;;;;5030069;28;20026;-72
2021/08/07 08:20:08;;;;;;;9.63;4.82;;;30.20;62.90;;;;;;5054334;28;20025;-72
2021/08/07 08:22:35;;;;;;;8.93;4.85;;;30.60;62.10;;;;;;5032884;28;20463;-73
2021/08/07 08:25:01;;;;;;;6.80;4.55;;;30.70;61.00;;;;;;5032606;28;20029;-73
2021/08/07 08:27:27;;;;;;;9.07;4.90;;;30.40;60.00;;;;;;5024941;28;20026;-73
2021/08/07 08:29:54;;;;;;;7.30;4.40;;;30.20;60.20;;;;;;5031079;28;20025;-73
2021/08/07 08:32:20;;;;;;;6.75;4.53;;;30.10;60.50;;;;;;5033695;28;20022;-72
2021/08/07 08:34:45;;;;;;;10.38;4.65;;;30.10;60.60;;;;;;5030295;28;20480;-71
2021/08/07 08:37:11;;;;;;;8.60;4.80;;;30.20;60.30;;;;;;5021539;28;20032;-71
2021/08/07 08:39:37;;;;;;;8.38;4.07;;;30.40;60.30;;;;;;5039822;28;20017;-71
2021/08/07 08:42:06;;;;;;;9.32;4.47;;;30.70;59.50;;;;;;5039799;28;20033;-72
2021/08/07 08:44:34;;;;;;;10.63;4.45;;;31.20;59.60;;;;;;5032364;28;20076;-71
2021/08/07 08:47:00;;;;;;;8.57;4.55;;;31.60;58.50;;;;;;5032294;28;20119;-72
2021/08/07 08:49:28;;;;;;;10.55;4.78;;;32.00;57.70;;;;;;5033462;28;20021;-72
2021/08/07 08:51:54;;;;;;;8.05;4.28;;;32.40;57.00;;;;;;5032567;28;20375;-73
2021/08/07 08:54:19;;;;;;;8.30;4.60;;;32.90;56.40;;;;;;5032058;28;20104;-73
2021/08/07 08:56:46;;;;;;;7.03;4.55;;;33.30;55.90;;;;;;5032301;28;20116;-73
2021/08/07 08:59:13;;;;;;;11.38;4.03;;;33.50;54.40;;;;;;5032285;28;20018;-72
2021/08/07 09:01:38;;;;;;;6.07;4.10;;;33.10;53.50;;;;;;5031803;28;20025;-72
2021/08/07 09:04:05;;;;;;;7.82;4.25;;;32.90;53.90;;;;;;5031574;28;20034;-72
2021/08/07 09:06:32;;;;;;;7.35;4.25;;;32.90;54.50;;;;;;5031836;28;20379;-72
2021/08/07 09:09:09;;;;;;;7.60;4.32;;;33.10;54.00;;;;;;5020374;28;20060;-72
2021/08/07 09:11:37;;;;;;;6.20;4.45;;;33.10;54.20;;;;;;5030608;28;20022;-73
2021/08/07 09:14:26;;;;;;;9.57;4.53;;;33.20;53.30;;;;;;5034765;28;20474;-75
2021/08/07 09:16:57;;;;;;;8.23;4.78;;;33.10;53.10;;;;;;5024192;28;20032;-73
2021/08/07 09:19:24;;;;;;;6.50;4.10;;;33.40;53.10;;;;;;5035207;28;20029;-74
2021/08/07 09:22:09;;;;;;;9.45;4.47;;;33.30;52.90;;;;;;5035261;28;20463;-76
2021/08/07 09:24:52;;;;;;;6.07;4.03;;;33.40;53.00;;;;;;5034304;28;20537;-77
2021/08/07 09:27:32;;;;;;;5.60;3.85;;;33.60;52.60;;;;;;5034469;28;20035;-77
2021/08/07 09:30:00;;;;;;;11.13;3.92;;;33.70;52.80;;;;;;5031433;28;20025;-78
2021/08/07 09:32:25;;;;;;;5.32;3.53;;;33.80;52.70;;;;;;5034777;28;20116;-78
2021/08/07 09:35:08;;;;;;;6.25;3.50;;;34.20;51.70;;;;;;5031433;28;20515;-78
2021/08/07 09:37:35;;;;;;;5.63;3.58;;;34.60;51.30;;;;;;5035151;28;20032;-77
2021/08/07 09:40:02;;;;;;;8.30;3.90;;;34.80;51.30;;;;;;5055937;28;20053;-78
2021/08/07 09:42:29;;;;;;;4.05;2.97;;;35.20;50.50;;;;;;5034529;28;20029;-78
2021/08/07 09:45:00;;;;;;;5.10;3.50;;;35.70;48.80;;;;;;5027078;28;20065;-78
2021/08/07 09:47:26;;;;;;;5.50;3.53;;;35.90;48.30;;;;;;5031800;28;20069;-80
2021/08/07 09:49:52;;;;;;;4.70;3.50;;;35.90;48.40;;;;;;5032681;28;20026;-77
2021/08/07 09:52:17;;;;;;;5.13;3.17;;;36.00;49.00;;;;;;5034509;28;20036;-76
2021/08/07 09:54:46;;;;;;;5.22;2.50;;;36.10;48.00;;;;;;5019630;28;20026;-76
2021/08/07 09:57:29;;;;;;;6.03;2.92;;;36.40;46.90;;;;;;5033555;28;20021;-76
2021/08/07 09:59:55;;;;;;;3.85;2.40;;;36.70;46.30;;;;;;5034238;28;20025;-76
2021/08/07 10:02:32;;;;;;;4.18;2.88;;;36.80;45.60;;;;;;5042778;28;20021;-76
2021/08/07 10:04:59;;;;;;;3.58;2.42;;;36.70;45.00;;;;;;5044892;28;20391;-76
2021/08/07 10:07:26;;;;;;;4.50;2.58;;;36.60;45.30;;;;;;5052017;28;20048;-74
2021/08/07 10:09:52;;;;;;;4.60;2.67;;;36.70;46.10;;;;;;5076904;28;20022;-76
2021/08/07 10:12:18;;;;;;;3.13;2.25;;;36.70;45.10;;;;;;5039655;28;20021;-76
2021/08/07 10:14:44;;;;;;;3.75;2.40;;;36.50;44.70;;;;;;5031178;28;20017;-76
2021/08/07 10:17:12;;;;;;;5.78;2.63;;;36.30;45.20;;;;;;5024062;28;20369;-76
2021/08/07 10:19:39;;;;;;;3.67;2.35;;;36.00;45.40;;;;;;5018392;28;20025;-76
2021/08/07 10:22:07;;;;;;;3.00;2.38;;;35.80;45.90;;;;;;5024494;28;20435;-76
2021/08/07 10:24:34;;;;;;;4.22;2.70;;;35.40;45.60;;;;;;5015884;28;20064;-76
2021/08/07 10:27:00;;;;;;;3.63;2.50;;;35.20;46.40;;;;;;5027274;28;20367;-76
2021/08/07 10:29:32;;;;;;;3.80;2.63;;;35.00;46.30;;;;;;5014494;28;20112;-76
2021/08/07 10:31:58;;;;;;;4.95;2.53;;;34.80;46.40;;;;;;5027723;28;20025;-77
2021/08/07 10:34:24;;;;;;;3.97;2.42;;;34.40;46.50;;;;;;5023225;28;20490;-76
2021/08/07 10:36:50;;;;;;;4.55;2.30;;;34.20;46.50;;;;;;5021126;28;20071;-76
2021/08/07 10:39:17;;;;;;;3.58;2.13;;;33.90;47.20;;;;;;5021267;28;20026;-76
2021/08/07 10:41:43;;;;;;;4.13;2.53;;;33.60;47.00;;;;;;5029661;28;20026;-76
2021/08/07 10:44:12;;;;;;;4.32;2.50;;;33.40;47.90;;;;;;5027501;28;20041;-75
2021/08/07 10:46:39;;;;;;;4.57;2.30;;;33.40;48.20;;;;;;5026011;28;20469;-76
2021/08/07 10:49:07;;;;;;;4.32;2.80;;;33.30;47.60;;;;;;5025110;28;20022;-76
2021/08/07 10:51:41;;;;;;;3.33;2.03;;;33.40;47.80;;;;;;5031373;28;20457;-75
2021/08/07 10:54:26;;;;;;;2.80;2.15;;;33.60;48.90;;;;;;5032044;28;20048;-76
2021/08/07 10:56:52;;;;;;;2.85;2.40;;;33.80;48.60;;;;;;5045731;28;20022;-74
2021/08/07 10:59:22;;;;;;;4.75;2.60;;;33.90;48.50;;;;;;5028969;28;20045;-75
2021/08/07 11:01:58;;;;;;;3.08;2.08;;;34.00;48.30;;;;;;5034436;28;20053;-75
2021/08/07 11:04:29;;;;;;;3.05;1.95;;;34.00;47.10;;;;;;5029320;28;20556;-75
2021/08/07 11:06:59;;;;;;;4.20;2.13;;;34.00;46.90;;;;;;5009600;28;1337567;-75
2021/08/07 11:09:43;;;;;;;2.92;2.33;;;34.00;46.90;;;;;;5028098;28;20021;-74
2021/08/07 11:12:12;;;;;;;5.63;2.33;;;33.90;46.50;;;;;;5029581;28;20030;-76
2021/08/07 11:14:48;;;;;;;4.22;2.25;;;33.40;46.80;;;;;;5032560;28;20108;-75
2021/08/07 11:17:14;;;;;;;2.78;2.20;;;32.90;47.40;;;;;;5044637;28;20056;-75
2021/08/07 11:19:51;;;;;;;5.40;2.20;;;32.40;47.80;;;;;;5039723;28;20049;-75
2021/08/07 11:22:41;;;;;;;4.13;2.47;;;32.00;48.70;;;;;;5064706;28;20033;-75
2021/08/07 11:25:18;;;;;;;3.33;2.20;;;31.40;49.50;;;;;;5050414;28;20111;-75
2021/08/07 11:27:47;;;;;;;5.05;2.40;;;30.70;50.50;;;;;;5032763;28;20018;-75
2021/08/07 11:30:21;;;;;;;3.63;2.60;;;30.30;51.30;;;;;;5065884;28;20116;-76
2021/08/07 11:32:56;;;;;;;3.78;2.42;;;29.80;51.90;;;;;;5022575;28;20100;-75
2021/08/07 11:35:34;;;;;;;3.58;2.50;;;29.60;52.40;;;;;;5046494;28;20029;-74
2021/08/07 11:38:06;;;;;;;5.88;2.53;;;29.60;52.90;;;;;;5040906;28;20088;-75
2021/08/07 11:40:50;;;;;;;3.35;2.53;;;29.70;53.60;;;;;;5045435;28;20040;-75
2021/08/07 11:43:19;;;;;;;3.00;2.20;;;29.90;53.80;;;;;;5035062;28;20038;-75
2021/08/07 11:46:02;;;;;;;3.45;2.20;;;30.10;53.50;;;;;;5033035;28;20096;-75
2021/08/07 11:48:29;;;;;;;3.17;2.30;;;30.10;53.20;;;;;;5027544;28;20502;-75
2021/08/07 11:50:57;;;;;;;4.18;2.35;;;30.10;52.80;;;;;;5031343;28;20035;-76
2021/08/07 11:53:25;;;;;;;2.58;1.95;;;30.00;52.30;;;;;;5026217;28;20460;-73
2021/08/07 11:56:04;;;;;;;4.95;2.15;;;29.90;52.10;;;;;;5029294;28;20044;-75
2021/08/07 11:58:31;;;;;;;3.95;2.00;;;29.70;52.40;;;;;;5031332;28;20112;-75
2021/08/07 12:01:03;;;;;;;5.93;2.05;;;29.60;52.60;;;;;;5063139;28;20112;-75
2021/08/07 12:03:45;;;;;;;2.92;1.90;;;29.50;52.60;;;;;;5031280;28;20037;-76
2021/08/07 12:06:13;;;;;;;4.18;1.85;;;29.40;52.60;;;;;;5048955;28;20064;-76
2021/08/07 12:08:39;;;;;;;2.92;2.00;;;29.20;52.50;;;;;;5032232;28;20132;-81
2021/08/07 12:11:08;;;;;;;2.65;1.83;;;29.10;52.70;;;;;;5033794;28;20092;-77
2021/08/07 12:13:38;;;;;;;3.78;2.40;;;28.90;52.80;;;;;;5049227;28;20040;-76
2021/08/07 12:16:08;;;;;;;3.38;2.05;;;28.70;52.90;;;;;;5036517;28;20072;-73
2021/08/07 12:18:41;;;;;;;5.75;2.50;;;28.50;53.20;;;;;;5032838;28;20036;-73
2021/08/07 12:21:08;;;;;;;5.25;2.58;;;28.40;53.10;;;;;;5044785;28;20025;-72
2021/08/07 12:23:46;;;;;;;4.57;2.72;;;28.20;53.50;;;;;;5052578;28;20378;-74
2021/08/07 12:26:13;;;;;;;5.65;3.03;;;28.10;53.50;;;;;;5053030;28;20087;-70
2021/08/07 12:28:39;;;;;;;4.47;2.30;;;28.00;53.80;;;;;;5050265;28;20120;-72
2021/08/07 12:31:05;;;;;;;3.67;2.35;;;28.00;54.20;;;;;;5053967;28;20025;-71
2021/08/07 12:33:38;;;;;;;3.58;2.30;;;27.90;54.20;;;;;;5053685;28;20040;-73
2021/08/07 12:36:17;;;;;;;4.13;2.38;;;27.80;54.40;;;;;;5051176;28;20151;-72
2021/08/07 12:38:46;;;;;;;3.38;2.20;;;27.70;54.70;;;;;;5032944;28;20025;-74
2021/08/07 12:41:14;;;;;;;3.85;2.53;;;27.50;54.80;;;;;;5033214;28;20529;-74